Track Груздев Андрей

Time Latitude Longitude Accuracy (66% radius in meters) Altitude (meters) Speed (km/hour) Bearing (degrees) Battery (%) GPS flag
09:03:22 55.944041 38.068173 4 181.92407143006 0.19318187236786 354.17468261719 81 1 delete
09:03:10 55.944044 38.068183 8 182.11502562648 0.18469272553921 358.08200073242 81 1 delete
09:03:01 55.944039 38.068203 8 182.74433065673 0.35540238022804 73.295227050781 81 1 delete
09:02:49 55.944045 38.068214 12 183.86765507147 0.38782557845116 163.40081787109 81 1 delete
09:02:37 55.944061 38.068219 8 183.15525426901 0.42998194694519 174.35940551758 81 1 delete
09:02:25 55.944060 38.068211 6 183.01869715075 0.2001730799675 32.873180389404 81 1 delete
09:02:13 55.944050 38.068178 8 182.72889433157 0.28317201137543 89.259689331055 81 1 delete
09:02:04 55.944048 38.068146 6 182.98206665795 0.88666200637817 73.107452392578 81 1 delete
09:01:52 55.944036 38.068051 6 182.67639648482 2.5627546310425 63.357498168945 81 1 delete
09:01:49 55.944016 38.067946 6 182.32685575869 2.5944991111755 56.935470581055 81 1 delete
09:01:46 55.943974 38.067832 4 181.94016743847 2.335339307785 61.836795806885 81 1 delete
09:01:43 55.943940 38.067735 6 181.73087995039 1.7975723743439 65.490158081055 81 1 delete
09:01:40 55.943925 38.067667 6 181.58644496535 1.2956364154816 62.64005279541 81 1 delete
09:01:37 55.943908 38.067639 6 181.53279987404 4.204469203949 59.909103393555 81 1 delete
09:01:34 55.943839 38.067509 6 181.77120917337 4.2224521636963 47.407657623291 81 1 delete
09:01:31 55.943704 38.067412 6 181.99431684257 3.729386806488 343.53598022461 81 1 delete
09:01:28 55.943582 38.067369 6 182.46936763566 3.3292193412781 46.058414459229 81 1 delete
09:01:25 55.943492 38.067181 8 181.87601501323 3.2155058383942 57.425926208496 81 1 delete
09:01:22 55.943465 38.067077 8 181.66576281232 3.5370647907257 86.783325195312 81 1 delete
09:01:19 55.943438 38.066991 6 181.5462710876 4.007504940033 56.066848754883 81 1 delete
09:01:16 55.943327 38.066905 6 180.63536332226 3.9634935855865 342.87490844727 81 1 delete
09:01:13 55.943195 38.066970 6 180.3728751064 3.8420286178589 334.34732055664 81 1 delete
09:01:10 55.943062 38.067050 6 180.37695742415 3.8133614063263 344.72274780273 81 1 delete
09:01:07 55.942946 38.067114 6 180.34391619649 3.7163326740265 344.85202026367 81 1 delete
09:01:04 55.942784 38.067211 6 180.23864236194 3.5275778770447 329.28942871094 81 1 delete
09:01:01 55.942663 38.067302 6 180.20427528218 3.4604516029358 5.0656867027283 81 1 delete
09:00:58 55.942560 38.067303 6 180.09428637222 3.4825375080109 1.2782126665115 81 1 delete
09:00:55 55.942453 38.067292 6 179.91118202712 3.4294059276581 320.47952270508 81 1 delete
09:00:52 55.942434 38.067208 6 179.50734729469 3.3983018398285 110.1724395752 81 1 delete
09:00:49 55.942478 38.067025 6 179.50355325275 3.2214305400848 132.07077026367 81 1 delete
09:00:46 55.942527 38.066871 6 179.33899127423 2.9614098072052 94.385948181152 81 1 delete
09:00:43 55.942482 38.066693 6 179.16580499875 2.8265464305878 41.572486877441 81 1 delete
09:00:40 55.942437 38.066619 6 178.90519498339 2.2726726531982 35.801651000977 81 1 delete
09:00:37 55.942380 38.066567 6 178.58034775679 0 27.934881210327 81 1 delete
09:00:34 55.942328 38.066530 6 178.31583804 4.482593536377 16.729633331299 81 1 delete
09:00:31 55.942188 38.066503 6 179.28427337486 4.4703917503357 5.419481754303 81 1 delete
09:00:28 55.942045 38.066465 6 181.6371166574 4.4832520484924 3.5953478813171 81 1 delete
09:00:25 55.941905 38.066428 6 182.49413537588 4.606475353241 20.159200668335 81 1 delete
09:00:22 55.941826 38.066343 8 182.7332552197 4.9210996627808 30.804016113281 81 1 delete
09:00:19 55.941747 38.066236 6 183.67898843389 5.1383171081543 76.749366760254 81 1 delete
09:00:16 55.941777 38.065961 6 184.71867075043 4.9900918006897 110.9351272583 81 1 delete
09:00:13 55.941848 38.065695 6 184.81717836535 4.8301696777344 113.11293792725 81 1 delete
09:00:10 55.941917 38.065437 6 186.31710213146 4.544753074646 131.6257019043 81 1 delete
09:00:07 55.942032 38.065232 8 187.38002015702 4.2885837554932 134.87919616699 81 1 delete
09:00:04 55.942115 38.064968 6 187.41926501165 4.1642689704895 104.64300537109 81 1 delete
09:00:01 55.942139 38.064791 6 187.2588187295 4.1775403022766 109.77411651611 81 1 delete
08:59:58 55.942176 38.064545 6 186.39703716714 4.106339931488 102.96292114258 81 1 delete
08:59:55 55.942210 38.064313 6 185.85534567443 4.2483344078064 101.00652313232 81 1 delete
08:59:52 55.942224 38.064130 6 185.72566578753 4.4464492797852 109.1848449707 81 1 delete
08:59:49 55.942274 38.063917 6 186.49289588473 4.5861382484436 87.566474914551 81 1 delete